Time;durP1;ratioP1;P1;durP2;ratioP2;P2;SDS_P1;SDS_P2;PMS_P1;PMS_P2;Temp;Humidity;BMP_temperature;BMP_pressure;BME280_temperature;BME280_humidity;BME280_pressure;Samples;Min_cycle;Max_cycle;Signal;HPM_P1;HPM_P2
2023/01/05 00:00:54;;;;;;;36.60;5.90;;;11.10;99.90;;;;;;5035303;28;20026;-84
2023/01/05 00:03:20;;;;;;;38.80;5.50;;;11.00;99.90;;;;;;5018656;28;20021;-85
2023/01/05 00:05:45;;;;;;;35.03;5.27;;;11.00;99.90;;;;;;5035656;28;20025;-84
2023/01/05 00:08:11;;;;;;;29.92;5.20;;;11.00;99.90;;;;;;5017591;28;20388;-86
2023/01/05 00:24:24;;;;;;;41.77;5.77;;;10.70;99.90;;;;;;5035057;28;20124;-81
2023/01/05 00:26:50;;;;;;;25.33;4.37;;;10.70;99.90;;;;;;5034187;28;20049;-80
2023/01/05 00:29:16;;;;;;;42.63;5.93;;;10.60;99.90;;;;;;5016878;28;20026;-80
2023/01/05 00:31:41;;;;;;;45.83;6.57;;;10.60;99.90;;;;;;5016392;28;20033;-80
2023/01/05 00:34:07;;;;;;;35.17;5.67;;;10.60;99.90;;;;;;5033955;28;20022;-79
2023/01/05 00:36:33;;;;;;;37.20;6.37;;;10.50;99.90;;;;;;5017455;28;20041;-80
2023/01/05 00:38:58;;;;;;;28.57;5.83;;;10.50;99.90;;;;;;5033310;28;20053;-85
2023/01/05 00:41:24;;;;;;;37.93;5.60;;;10.40;99.90;;;;;;5016281;28;20375;-85
2023/01/05 00:43:49;;;;;;;30.27;5.33;;;10.40;99.90;;;;;;5033884;28;20024;-85
2023/01/05 00:46:15;;;;;;;28.57;4.73;;;10.40;99.90;;;;;;5016366;28;20509;-85
2023/01/05 00:48:41;;;;;;;33.43;6.23;;;10.30;99.90;;;;;;5032601;28;20548;-84
2023/01/05 00:51:06;;;;;;;35.77;7.20;;;10.30;99.90;;;;;;5016283;28;20030;-85
2023/01/05 00:53:32;;;;;;;25.80;5.40;;;10.30;99.90;;;;;;5015962;28;20038;-85
2023/01/05 00:55:58;;;;;;;31.80;5.40;;;10.20;99.90;;;;;;5016143;28;20204;-85
2023/01/05 00:58:23;;;;;;;33.27;5.13;;;10.20;99.90;;;;;;5032355;28;20022;-86
2023/01/05 01:00:49;;;;;;;30.40;5.47;;;10.10;99.90;;;;;;5015947;28;20033;-85
2023/01/05 01:03:15;;;;;;;28.00;5.00;;;10.10;99.90;;;;;;5015996;28;20060;-85
2023/01/05 01:05:41;;;;;;;39.17;7.60;;;10.10;99.90;;;;;;5016055;28;20034;-85
2023/01/05 01:08:06;;;;;;;32.73;5.10;;;10.10;99.90;;;;;;5032827;28;20550;-85
2023/01/05 01:10:32;;;;;;;38.20;8.10;;;10.00;99.90;;;;;;5015909;28;20025;-86
2023/01/05 01:12:58;;;;;;;40.03;6.43;;;10.00;99.90;;;;;;5017769;28;20107;-85
2023/01/05 01:15:24;;;;;;;38.70;6.57;;;10.10;99.90;;;;;;5022638;28;20037;-85
2023/01/05 01:17:50;;;;;;;35.80;6.40;;;10.00;99.90;;;;;;5039309;28;20021;-84
2023/01/05 01:20:15;;;;;;;39.73;5.80;;;10.00;99.90;;;;;;5039410;28;20053;-84
2023/01/05 01:22:41;;;;;;;36.73;6.03;;;10.00;99.90;;;;;;5022379;28;20104;-84
2023/01/05 01:25:07;;;;;;;52.97;9.00;;;10.10;99.90;;;;;;5022514;28;20060;-84
2023/01/05 01:27:32;;;;;;;44.80;6.27;;;10.10;99.90;;;;;;5022680;28;20471;-85
2023/01/05 01:29:58;;;;;;;43.60;6.77;;;10.10;99.90;;;;;;5022344;28;20029;-85
2023/01/05 01:32:24;;;;;;;35.13;5.83;;;10.10;99.90;;;;;;5022829;28;20030;-85
2023/01/05 01:34:49;;;;;;;37.27;6.03;;;10.20;99.90;;;;;;5038877;28;20432;-85
2023/01/05 01:37:16;;;;;;;29.87;6.13;;;10.20;99.90;;;;;;5022518;28;20033;-79
2023/01/05 01:39:41;;;;;;;27.00;5.70;;;10.20;99.90;;;;;;5039613;28;20024;-79
2023/01/05 01:42:15;;;;;;;27.53;5.50;;;10.20;99.90;;;;;;5023783;28;20367;-79
2023/01/05 01:45:01;;;;;;;36.38;5.35;;;10.20;99.90;;;;;;5038795;28;20071;-79
2023/01/05 01:47:33;;;;;;;30.90;5.13;;;10.20;99.90;;;;;;5038877;28;20022;-79
2023/01/05 01:50:17;;;;;;;36.13;5.80;;;10.20;99.90;;;;;;5038681;28;20056;-79
2023/01/05 01:52:47;;;;;;;31.23;5.45;;;10.20;99.90;;;;;;5038602;28;20079;-79
2023/01/05 01:55:13;;;;;;;44.87;7.30;;;10.20;99.90;;;;;;5039010;28;20021;-79
2023/01/05 01:57:40;;;;;;;44.93;7.00;;;10.20;99.90;;;;;;5039492;28;20021;-79
2023/01/05 02:00:09;;;;;;;32.50;5.23;;;10.20;99.90;;;;;;5039584;28;20025;-79
2023/01/05 02:02:35;;;;;;;42.67;7.10;;;10.20;99.90;;;;;;5038753;28;20022;-79
2023/01/05 02:05:05;;;;;;;38.97;6.50;;;10.20;99.90;;;;;;5022636;28;20064;-79
2023/01/05 02:07:38;;;;;;;38.30;5.70;;;10.30;99.90;;;;;;5038883;28;20112;-79
2023/01/05 02:10:04;;;;;;;36.97;5.30;;;10.30;99.90;;;;;;5038906;28;20025;-79
2023/01/05 02:13:16;;;;;;;39.90;5.83;;;10.30;99.90;;;;;;5022143;28;20083;-79
2023/01/05 02:16:32;;;;;;;42.93;5.90;;;10.30;99.90;;;;;;5038603;28;20115;-79
2023/01/05 02:19:38;;;;;;;39.23;5.63;;;10.30;99.90;;;;;;5021888;28;20036;-79
2023/01/05 02:22:36;;;;;;;31.83;5.47;;;10.30;99.90;;;;;;5038324;28;20033;-79
2023/01/05 02:25:26;;;;;;;44.33;7.60;;;10.20;99.90;;;;;;5037000;28;20021;-79
2023/01/05 02:28:02;;;;;;;48.50;6.63;;;10.30;99.90;;;;;;5035296;28;20191;-79
2023/01/05 02:30:53;;;;;;;35.00;6.43;;;10.30;99.90;;;;;;5034947;28;20033;-79
2023/01/05 02:33:43;;;;;;;33.37;5.50;;;10.30;99.90;;;;;;5036810;28;20056;-79
2023/01/05 02:36:46;;;;;;;31.67;5.03;;;10.40;99.90;;;;;;5035224;28;20025;-79
2023/01/05 02:39:14;;;;;;;36.07;5.57;;;10.30;99.90;;;;;;5029266;28;20038;-79
2023/01/05 02:42:11;;;;;;;27.50;5.47;;;10.40;99.90;;;;;;5035291;28;20061;-79
2023/01/05 02:44:37;;;;;;;37.47;5.73;;;10.30;99.90;;;;;;5035071;28;20033;-79
2023/01/05 02:47:07;;;;;;;41.83;5.27;;;10.30;99.90;;;;;;5035596;28;20036;-79
2023/01/05 02:49:39;;;;;;;28.20;5.47;;;10.40;99.90;;;;;;5035224;28;20071;-79
2023/01/05 02:52:07;;;;;;;36.90;6.50;;;10.40;99.90;;;;;;5035085;28;20021;-79
2023/01/05 02:54:47;;;;;;;32.90;5.83;;;10.40;99.90;;;;;;5035405;28;20049;-79
2023/01/05 02:57:19;;;;;;;42.53;6.57;;;10.40;99.90;;;;;;5035139;28;20465;-79
2023/01/05 02:59:52;;;;;;;47.03;6.53;;;10.50;99.90;;;;;;5036717;28;20037;-79
2023/01/05 03:02:26;;;;;;;25.93;4.53;;;10.50;99.90;;;;;;5037297;28;20481;-79
2023/01/05 03:05:05;;;;;;;38.05;5.63;;;10.50;99.90;;;;;;5037208;28;20557;-79
2023/01/05 03:07:34;;;;;;;41.67;6.68;;;10.50;99.90;;;;;;5034968;28;20382;-79
2023/01/05 03:13:39;;;;;;;33.17;6.13;;;10.50;99.90;;;;;;5034474;28;20060;-79
2023/01/05 03:15:35;;;;;;;34.27;6.37;;;10.50;99.90;;;;;;5035515;28;20040;-79
2023/01/05 03:18:08;;;;;;;29.80;6.00;;;10.60;99.90;;;;;;5034072;28;20025;-79
2023/01/05 03:20:37;;;;;;;39.83;5.57;;;10.50;99.90;;;;;;5033869;28;20477;-79
2023/01/05 03:38:03;;;;;;;36.17;5.07;;;10.60;99.90;;;;;;5034569;28;20036;-79
2023/01/05 03:40:32;;;;;;;29.50;4.77;;;10.50;99.90;;;;;;5035627;28;20033;-79
2023/01/05 03:42:58;;;;;;;30.63;5.93;;;10.60;99.90;;;;;;5033825;28;20018;-79
2023/01/05 03:45:31;;;;;;;33.93;5.30;;;10.50;99.90;;;;;;5034086;28;20036;-79
2023/01/05 03:47:57;;;;;;;30.83;4.78;;;10.60;99.90;;;;;;5035442;28;20021;-79
2023/01/05 03:50:22;;;;;;;30.43;5.57;;;10.50;99.90;;;;;;5033996;28;20036;-79
2023/01/05 03:52:48;;;;;;;37.60;5.20;;;10.60;99.90;;;;;;5017351;28;20025;-79
2023/01/05 03:55:14;;;;;;;39.93;6.83;;;10.60;99.90;;;;;;5033537;28;20107;-80
2023/01/05 03:57:39;;;;;;;25.70;4.20;;;10.50;99.90;;;;;;5017634;28;20021;-79
2023/01/05 04:00:05;;;;;;;41.03;5.70;;;10.60;99.90;;;;;;5017125;28;20125;-79
2023/01/05 04:02:31;;;;;;;32.30;5.17;;;10.50;99.90;;;;;;5033476;28;20061;-79
2023/01/05 04:04:57;;;;;;;35.37;5.60;;;10.50;99.90;;;;;;5033729;28;20049;-79
2023/01/05 04:07:22;;;;;;;41.27;6.47;;;10.50;99.90;;;;;;5033387;28;20362;-80
2023/01/05 04:09:48;;;;;;;30.07;6.37;;;10.50;99.90;;;;;;5016974;28;20104;-79
2023/01/05 04:12:14;;;;;;;33.70;5.20;;;10.50;99.90;;;;;;5016879;28;20390;-79
2023/01/05 04:14:39;;;;;;;32.47;4.70;;;10.60;99.90;;;;;;5033196;28;20544;-79
2023/01/05 04:17:05;;;;;;;33.50;5.40;;;10.60;99.90;;;;;;5017186;28;20138;-79
2023/01/05 04:19:31;;;;;;;33.60;6.17;;;10.60;99.90;;;;;;5033537;28;20474;-80
2023/01/05 04:21:56;;;;;;;41.33;6.33;;;10.60;99.90;;;;;;5033043;28;20492;-79
2023/01/05 04:24:22;;;;;;;23.97;4.20;;;10.60;99.90;;;;;;5017600;28;20075;-79
2023/01/05 04:26:48;;;;;;;27.37;5.33;;;10.60;99.90;;;;;;5034524;28;20160;-79
2023/01/05 04:29:13;;;;;;;36.27;5.70;;;10.60;99.90;;;;;;5032902;28;20488;-79
2023/01/05 04:31:39;;;;;;;28.23;5.63;;;10.50;99.90;;;;;;5033109;28;20547;-79
2023/01/05 04:34:04;;;;;;;29.47;4.57;;;10.60;99.90;;;;;;5016265;28;20485;-78
2023/01/05 04:36:30;;;;;;;34.03;4.10;;;10.60;99.90;;;;;;5016591;28;20122;-79
2023/01/05 04:38:56;;;;;;;29.33;4.73;;;10.60;99.90;;;;;;5016741;28;20037;-78
2023/01/05 04:41:21;;;;;;;38.07;5.63;;;10.60;99.90;;;;;;5016599;28;20040;-79
2023/01/05 04:43:47;;;;;;;29.37;4.80;;;10.60;99.90;;;;;;5016978;28;20057;-78
2023/01/05 04:46:13;;;;;;;32.27;4.47;;;10.50;99.90;;;;;;5015810;28;20041;-80
2023/01/05 04:48:38;;;;;;;38.60;5.93;;;10.60;99.90;;;;;;5032145;28;20071;-79
2023/01/05 04:51:04;;;;;;;34.47;4.47;;;10.50;99.90;;;;;;5016019;28;20029;-79
2023/01/05 04:53:32;;;;;;;37.87;5.87;;;10.50;99.90;;;;;;5032912;28;20113;-79
2023/01/05 04:55:58;;;;;;;34.30;4.43;;;10.60;99.90;;;;;;5016692;28;20032;-80
2023/01/05 04:58:23;;;;;;;26.90;5.37;;;10.50;99.90;;;;;;5016044;28;20153;-79
2023/01/05 05:00:49;;;;;;;32.20;5.53;;;10.60;99.90;;;;;;5032537;28;20474;-79
2023/01/05 05:03:15;;;;;;;29.90;4.20;;;10.60;99.90;;;;;;5032760;28;20038;-80
2023/01/05 05:05:41;;;;;;;26.85;3.67;;;10.60;99.90;;;;;;5016173;28;20132;-80
2023/01/05 05:08:06;;;;;;;35.93;4.67;;;10.60;99.90;;;;;;5033155;28;20036;-80
2023/01/05 05:10:32;;;;;;;30.97;5.13;;;10.50;99.90;;;;;;5034040;28;20025;-85
2023/01/05 05:12:58;;;;;;;31.77;5.13;;;10.60;99.90;;;;;;5018115;28;20053;-85
2023/01/05 05:15:24;;;;;;;27.50;4.90;;;10.50;99.90;;;;;;5016727;28;20461;-85
2023/01/05 05:17:49;;;;;;;30.67;6.50;;;10.50;99.90;;;;;;5016286;28;20116;-84
2023/01/05 05:20:15;;;;;;;29.00;4.50;;;10.60;99.90;;;;;;5016068;28;20482;-85
2023/01/05 05:22:41;;;;;;;37.97;5.30;;;10.50;99.90;;;;;;5033714;28;20030;-85
2023/01/05 05:25:07;;;;;;;30.07;4.83;;;10.50;99.90;;;;;;5032328;28;20057;-85
2023/01/05 05:27:33;;;;;;;30.90;5.23;;;10.60;99.90;;;;;;5032181;28;20057;-85
2023/01/05 05:29:58;;;;;;;27.10;4.73;;;10.60;99.90;;;;;;5015762;28;20069;-85
2023/01/05 05:32:24;;;;;;;31.40;5.73;;;10.60;99.90;;;;;;5032137;28;20040;-84
2023/01/05 05:34:49;;;;;;;36.90;4.70;;;10.60;99.90;;;;;;5015797;28;20026;-85
2023/01/05 05:37:15;;;;;;;28.73;5.38;;;10.60;99.90;;;;;;5015775;28;20029;-82
2023/01/05 05:39:41;;;;;;;30.25;4.75;;;10.60;99.90;;;;;;5015587;28;20037;-86
2023/01/05 05:42:06;;;;;;;32.67;5.37;;;10.60;99.90;;;;;;5015707;28;20124;-85
2023/01/05 05:44:32;;;;;;;27.87;4.10;;;10.70;99.90;;;;;;5015556;28;20040;-83
2023/01/05 05:46:58;;;;;;;30.17;4.70;;;10.70;99.90;;;;;;5016096;28;20030;-85
2023/01/05 05:49:23;;;;;;;38.28;5.38;;;10.60;99.90;;;;;;4995181;28;20375;-85
2023/01/05 05:51:49;;;;;;;30.73;5.90;;;10.60;99.90;;;;;;5027347;28;20041;-86
2023/01/05 05:54:15;;;;;;;39.67;5.67;;;10.70;99.90;;;;;;5011800;28;20026;-85
2023/01/05 05:56:40;;;;;;;30.60;5.00;;;10.70;99.90;;;;;;5013863;28;20153;-85
2023/01/05 05:59:06;;;;;;;30.70;4.73;;;10.70;99.90;;;;;;4996094;28;20026;-85
2023/01/05 06:01:31;;;;;;;36.07;5.60;;;10.70;99.90;;;;;;5022362;28;20456;-86
2023/01/05 06:03:57;;;;;;;29.60;4.73;;;10.70;99.90;;;;;;5017639;28;20044;-85
2023/01/05 06:06:23;;;;;;;35.87;5.87;;;10.70;99.90;;;;;;5017398;28;20072;-85
2023/01/05 06:08:48;;;;;;;37.03;5.20;;;10.70;99.90;;;;;;5035367;28;20108;-85
2023/01/05 06:11:14;;;;;;;28.60;6.17;;;10.70;99.90;;;;;;5035433;28;20041;-85
2023/01/05 06:13:40;;;;;;;32.15;5.38;;;10.70;99.90;;;;;;5035309;28;20055;-86
2023/01/05 06:16:06;;;;;;;31.20;4.73;;;10.70;99.90;;;;;;5035592;28;20053;-85
2023/01/05 06:18:31;;;;;;;45.47;6.67;;;10.70;99.90;;;;;;5019101;28;20128;-85
2023/01/05 06:20:57;;;;;;;30.52;4.35;;;10.70;99.90;;;;;;5018640;28;20026;-84
2023/01/05 06:23:23;;;;;;;25.67;5.00;;;10.70;99.90;;;;;;5035315;28;20029;-85
2023/01/05 06:25:48;;;;;;;34.53;5.07;;;10.70;99.90;;;;;;5035135;28;20397;-85
2023/01/05 06:28:14;;;;;;;28.40;4.33;;;10.70;99.90;;;;;;5018486;28;20030;-85
2023/01/05 06:30:39;;;;;;;34.40;5.27;;;10.70;99.90;;;;;;5018699;28;20484;-85
2023/01/05 06:33:05;;;;;;;32.17;6.10;;;10.70;99.90;;;;;;5035318;28;20029;-85
2023/01/05 06:35:31;;;;;;;35.67;5.17;;;10.70;99.90;;;;;;5018729;28;20029;-85
2023/01/05 06:37:56;;;;;;;36.67;5.87;;;10.70;99.90;;;;;;5018710;28;20029;-86
2023/01/05 06:40:22;;;;;;;30.83;4.80;;;10.80;99.90;;;;;;5018632;28;20041;-86
2023/01/05 06:42:48;;;;;;;32.60;5.37;;;10.80;99.90;;;;;;5018468;28;20394;-85
2023/01/05 06:45:15;;;;;;;31.07;4.67;;;10.80;99.90;;;;;;5034966;28;20036;-85
2023/01/05 06:47:41;;;;;;;35.45;5.50;;;10.70;99.90;;;;;;5018088;28;20036;-85
2023/01/05 06:50:07;;;;;;;35.47;5.30;;;10.70;99.90;;;;;;5018429;28;20091;-86
2023/01/05 06:52:35;;;;;;;27.53;4.07;;;10.70;99.90;;;;;;5035021;28;20034;-85
2023/01/05 06:55:05;;;;;;;35.80;4.13;;;10.80;99.90;;;;;;5034958;28;20394;-85
2023/01/05 06:57:31;;;;;;;44.33;6.23;;;10.70;99.90;;;;;;5034799;28;20486;-86
2023/01/05 06:59:57;;;;;;;31.47;4.93;;;10.70;99.90;;;;;;5018484;28;20026;-85
2023/01/05 07:02:23;;;;;;;26.43;4.43;;;10.80;99.90;;;;;;5017938;28;20061;-86
2023/01/05 07:04:51;;;;;;;27.60;4.57;;;10.80;99.90;;;;;;5033689;28;20037;-84
2023/01/05 07:07:17;;;;;;;33.10;4.80;;;10.80;99.90;;;;;;5017447;28;20032;-86
2023/01/05 07:09:47;;;;;;;32.97;5.57;;;10.80;99.90;;;;;;5017912;28;20030;-86
2023/01/05 07:12:13;;;;;;;31.73;5.27;;;10.80;99.90;;;;;;5015869;28;20041;-85
2023/01/05 07:14:39;;;;;;;32.08;4.90;;;10.80;99.90;;;;;;5034197;28;20025;-85
2023/01/05 07:17:05;;;;;;;27.60;5.90;;;10.80;99.90;;;;;;5034064;28;20013;-85
2023/01/05 07:19:30;;;;;;;34.00;5.68;;;10.80;99.90;;;;;;5035034;28;20018;-85
2023/01/05 07:21:56;;;;;;;31.15;5.95;;;10.80;99.90;;;;;;5033822;28;20017;-85
2023/01/05 07:24:22;;;;;;;36.80;5.18;;;10.80;99.90;;;;;;5034292;28;20025;-85
2023/01/05 07:26:49;;;;;;;37.37;5.10;;;10.80;99.90;;;;;;5017118;28;20121;-85
2023/01/05 07:29:15;;;;;;;42.03;5.70;;;10.80;99.90;;;;;;5034300;28;20107;-85
2023/01/05 07:31:41;;;;;;;33.40;7.10;;;10.80;99.90;;;;;;5017671;28;20553;-85
2023/01/05 07:34:08;;;;;;;37.08;5.82;;;10.80;99.90;;;;;;5018070;28;20045;-85
2023/01/05 07:36:34;;;;;;;31.13;5.43;;;10.90;99.90;;;;;;5034714;28;20033;-86
2023/01/05 07:38:59;;;;;;;36.33;5.97;;;10.80;99.90;;;;;;5034525;28;20021;-88
2023/01/05 07:41:25;;;;;;;37.00;6.90;;;10.90;99.90;;;;;;5035007;28;20072;-86
2023/01/05 07:43:51;;;;;;;46.60;5.60;;;10.90;99.90;;;;;;5034535;28;20030;-87
2023/01/05 07:46:16;;;;;;;31.70;4.90;;;10.80;99.90;;;;;;5035801;28;20032;-87
2023/01/05 07:48:42;;;;;;;38.17;6.27;;;10.80;99.90;;;;;;5017828;28;20033;-86
2023/01/05 07:51:10;;;;;;;29.33;5.47;;;10.80;99.90;;;;;;5034375;28;20026;-84
2023/01/05 07:53:37;;;;;;;39.00;5.83;;;10.90;99.90;;;;;;5017577;28;20026;-85
2023/01/05 07:56:04;;;;;;;40.03;6.57;;;10.80;99.90;;;;;;5034318;28;20377;-87
2023/01/05 07:58:31;;;;;;;31.50;4.97;;;10.80;99.90;;;;;;5035228;28;20026;-88
2023/01/05 08:00:56;;;;;;;38.53;6.70;;;10.80;99.90;;;;;;5017988;28;20021;-87
2023/01/05 08:03:22;;;;;;;25.53;4.63;;;10.90;99.90;;;;;;5034667;28;20044;-86
2023/01/05 08:05:51;;;;;;;35.13;5.00;;;10.90;99.90;;;;;;5018396;28;20038;-88
2023/01/05 08:08:17;;;;;;;27.60;4.87;;;10.80;99.90;;;;;;5017680;28;20041;-85
2023/01/05 08:10:43;;;;;;;28.50;4.23;;;10.90;99.90;;;;;;5035197;28;20034;-88
2023/01/05 08:15:55;;;;;;;27.43;5.00;;;10.90;99.90;;;;;;5036442;28;20095;-88
2023/01/05 08:18:22;;;;;;;33.00;4.97;;;10.90;99.90;;;;;;5036305;28;20120;-87
2023/01/05 08:20:56;;;;;;;27.87;5.03;;;10.90;99.90;;;;;;5032856;28;20030;-87
2023/01/05 08:23:22;;;;;;;;;;;10.90;99.90;;;;;;5035505;28;20473;-86
2023/01/05 08:25:48;;;;;;;28.40;4.87;;;11.00;99.90;;;;;;5034020;28;20035;-87
2023/01/05 08:28:16;;;;;;;32.50;5.40;;;10.90;99.90;;;;;;5017395;28;20021;-87
2023/01/05 08:30:42;;;;;;;37.92;6.13;;;10.90;99.90;;;;;;5003016;28;20045;-87
2023/01/05 08:33:07;;;;;;;29.10;5.18;;;10.90;99.90;;;;;;5035245;28;20021;-87
2023/01/05 08:35:33;;;;;;;31.80;5.10;;;11.00;99.90;;;;;;5034938;28;20021;-88
2023/01/05 08:37:59;;;;;;;33.60;5.33;;;10.90;99.90;;;;;;5018504;28;20041;-86
2023/01/05 08:40:24;;;;;;;25.80;4.93;;;11.00;99.90;;;;;;5035856;28;20026;-86
2023/01/05 08:42:50;;;;;;;36.72;5.20;;;11.00;99.90;;;;;;5019095;28;20026;-87
2023/01/05 08:45:17;;;;;;;30.97;5.77;;;11.00;99.90;;;;;;5038889;28;20037;-86
2023/01/05 08:47:43;;;;;;;36.23;6.00;;;11.00;99.90;;;;;;5040051;28;20033;-86
2023/01/05 08:50:09;;;;;;;38.80;5.57;;;11.00;99.90;;;;;;5017865;28;20109;-87
2023/01/05 08:52:36;;;;;;;27.30;4.70;;;11.00;99.90;;;;;;5033693;28;20029;-87
2023/01/05 08:55:03;;;;;;;33.80;6.47;;;11.00;99.90;;;;;;5034289;28;20462;-87
2023/01/05 08:57:29;;;;;;;27.43;4.57;;;11.00;99.90;;;;;;5034263;28;20032;-87
2023/01/05 08:59:58;;;;;;;25.43;5.40;;;11.00;99.90;;;;;;5035470;28;20045;-88
2023/01/05 09:02:23;;;;;;;28.83;5.73;;;10.90;99.90;;;;;;5036051;28;20386;-87
2023/01/05 09:04:49;;;;;;;28.43;5.20;;;11.00;99.90;;;;;;5034378;28;20036;-87
2023/01/05 09:07:15;;;;;;;29.80;5.35;;;11.00;99.90;;;;;;5033014;28;20029;-87
2023/01/05 09:09:41;;;;;;;35.77;7.27;;;11.10;99.90;;;;;;5033291;28;20116;-87
2023/01/05 09:12:07;;;;;;;24.17;4.83;;;11.00;99.90;;;;;;5033580;28;20049;-87
2023/01/05 09:14:33;;;;;;;31.98;4.53;;;11.00;99.90;;;;;;5016930;28;20029;-87
2023/01/05 09:17:03;;;;;;;35.65;5.32;;;11.00;99.90;;;;;;5033775;28;20018;-87
2023/01/05 09:19:29;;;;;;;37.63;5.27;;;10.90;99.90;;;;;;5016989;28;20021;-86
2023/01/05 09:21:55;;;;;;;27.67;4.50;;;11.00;99.90;;;;;;5016970;28;20036;-87
2023/01/05 09:24:21;;;;;;;33.83;4.60;;;11.00;99.90;;;;;;5033548;28;20434;-85
2023/01/05 09:26:46;;;;;;;35.80;4.83;;;11.00;99.90;;;;;;5032247;28;20393;-86
2023/01/05 09:29:12;;;;;;;31.83;5.57;;;11.00;99.90;;;;;;5016942;28;20075;-87
2023/01/05 09:31:40;;;;;;;34.17;5.38;;;11.10;99.90;;;;;;5032483;28;20029;-86
2023/01/05 09:34:06;;;;;;;22.00;4.03;;;11.00;99.90;;;;;;5034006;28;20373;-86
2023/01/05 09:36:32;;;;;;;28.37;5.37;;;11.10;99.90;;;;;;5036627;28;20024;-85
2023/01/05 09:38:57;;;;;;;33.72;4.40;;;11.10;99.90;;;;;;5036331;28;20028;-87
2023/01/05 09:41:26;;;;;;;30.73;5.28;;;11.00;99.90;;;;;;5036789;28;20135;-85
2023/01/05 09:43:56;;;;;;;32.87;4.67;;;11.00;99.90;;;;;;5036556;28;20037;-86
2023/01/05 09:46:37;;;;;;;27.25;4.70;;;11.10;99.90;;;;;;5036374;28;20025;-85
2023/01/05 09:49:05;;;;;;;28.70;5.43;;;11.10;99.90;;;;;;5037761;28;20377;-86
2023/01/05 09:51:32;;;;;;;33.28;4.90;;;11.10;99.90;;;;;;5036179;28;20193;-80
2023/01/05 09:54:00;;;;;;;26.70;4.35;;;11.10;99.90;;;;;;5035691;28;20026;-79
2023/01/05 09:56:35;;;;;;;31.17;5.63;;;11.10;99.90;;;;;;5035794;28;20029;-79
2023/01/05 09:59:32;;;;;;;25.15;3.97;;;11.20;99.90;;;;;;5035488;28;20029;-79
2023/01/05 10:02:02;;;;;;;30.50;4.97;;;11.20;99.90;;;;;;5035617;28;20017;-79
2023/01/05 10:04:31;;;;;;;22.87;4.17;;;11.20;99.90;;;;;;5036526;28;20155;-79
2023/01/05 10:07:02;;;;;;;25.98;5.57;;;11.20;99.90;;;;;;5038922;28;20026;-77
2023/01/05 10:09:33;;;;;;;36.27;5.00;;;11.20;99.90;;;;;;5036492;28;20026;-79
2023/01/05 10:15:13;;;;;;;29.02;5.32;;;11.20;99.90;;;;;;5036772;28;20048;-79
2023/01/05 10:17:40;;;;;;;29.48;5.22;;;11.20;99.90;;;;;;5037071;28;20033;-78
2023/01/05 10:20:35;;;;;;;37.47;5.67;;;11.20;99.90;;;;;;5022401;28;20024;-78
2023/01/05 10:23:23;;;;;;;27.07;4.80;;;11.20;99.90;;;;;;5045086;28;20505;-78
2023/01/05 10:26:13;;;;;;;28.67;5.22;;;11.20;99.90;;;;;;5036098;28;20026;-77
2023/01/05 10:29:01;;;;;;;26.63;4.68;;;11.20;99.90;;;;;;5034449;28;20477;-76
2023/01/05 10:31:45;;;;;;;33.53;5.38;;;11.20;99.90;;;;;;5032977;28;20044;-77
2023/01/05 10:34:29;;;;;;;40.47;5.88;;;11.20;99.90;;;;;;5033493;28;20025;-77
2023/01/05 10:37:23;;;;;;;25.98;5.20;;;11.30;99.90;;;;;;5034355;28;20029;-76
2023/01/05 10:39:51;;;;;;;32.00;4.47;;;11.20;99.90;;;;;;5033178;28;20026;-77
2023/01/05 10:42:32;;;;;;;29.93;4.50;;;11.30;99.90;;;;;;5032674;28;20025;-76
2023/01/05 10:45:01;;;;;;;23.23;4.35;;;11.30;99.90;;;;;;5048938;28;20036;-77
2023/01/05 10:47:30;;;;;;;31.58;4.95;;;11.30;99.90;;;;;;5031867;28;20021;-77
2023/01/05 10:49:57;;;;;;;28.73;3.72;;;11.30;99.90;;;;;;5034347;28;20033;-77
2023/01/05 10:52:23;;;;;;;25.17;3.83;;;11.40;99.90;;;;;;5034423;28;20391;-77
2023/01/05 10:54:59;;;;;;;27.90;4.88;;;11.40;99.90;;;;;;5018072;28;20030;-77
2023/01/05 10:57:27;;;;;;;25.15;4.25;;;11.40;99.90;;;;;;5034380;28;20068;-77
2023/01/05 11:00:12;;;;;;;35.60;6.28;;;11.40;99.90;;;;;;5034271;28;20044;-77
2023/01/05 11:02:42;;;;;;;;;;;11.40;99.90;;;;;;5049563;28;20401;-77
2023/01/05 11:05:10;;;;;;;40.58;5.65;;;11.40;99.90;;;;;;5033517;28;20261;-77
2023/01/05 11:07:47;;;;;;;25.58;4.22;;;11.40;99.90;;;;;;5034832;28;20033;-77
2023/01/05 11:10:31;;;;;;;32.47;5.35;;;11.40;99.90;;;;;;5031289;28;20057;-77
2023/01/05 11:13:06;;;;;;;39.85;7.38;;;11.40;99.90;;;;;;5037606;28;20042;-77
2023/01/05 11:15:39;;;;;;;35.28;5.43;;;11.50;99.90;;;;;;5032900;28;20018;-77
2023/01/05 11:18:06;;;;;;;33.30;5.35;;;11.60;99.90;;;;;;5034783;28;20036;-77
2023/01/05 11:20:32;;;;;;;29.30;4.88;;;11.60;99.90;;;;;;5031903;28;20025;-77
2023/01/05 11:22:58;;;;;;;27.38;5.45;;;11.60;99.90;;;;;;5016958;28;20080;-77
2023/01/05 11:25:30;;;;;;;26.67;4.00;;;11.60;99.90;;;;;;5033407;28;20025;-77
2023/01/05 11:28:14;;;;;;;27.88;5.90;;;11.60;99.90;;;;;;5033541;28;20033;-76
2023/01/05 11:31:02;;;;;;;34.45;5.00;;;11.70;99.90;;;;;;5034230;28;20389;-77
2023/01/05 11:33:29;;;;;;;28.77;4.68;;;11.80;99.90;;;;;;5047781;28;20076;-77
2023/01/05 11:35:56;;;;;;;27.90;4.93;;;11.70;99.90;;;;;;5016544;28;20017;-77
2023/01/05 11:38:29;;;;;;;30.40;4.82;;;11.90;99.90;;;;;;5034368;28;20024;-77
2023/01/05 11:40:59;;;;;;;40.05;6.57;;;11.90;99.90;;;;;;5033039;28;20064;-77
2023/01/05 11:43:27;;;;;;;28.02;4.95;;;12.00;99.90;;;;;;5014452;28;20022;-77
2023/01/05 11:45:56;;;;;;;32.92;5.63;;;12.10;99.90;;;;;;5032794;28;20432;-77
2023/01/05 11:48:26;;;;;;;30.60;5.28;;;12.20;99.90;;;;;;5046748;28;20020;-77
2023/01/05 11:50:55;;;;;;;26.85;4.68;;;12.40;99.90;;;;;;5032876;28;20018;-77
2023/01/05 11:53:32;;;;;;;35.28;5.80;;;12.50;99.90;;;;;;5033931;28;20014;-77
2023/01/05 11:56:19;;;;;;;30.38;5.45;;;12.60;99.90;;;;;;5035423;28;20018;-79
2023/01/05 11:58:46;;;;;;;28.13;4.95;;;12.70;99.90;;;;;;5032856;28;20018;-80
2023/01/05 12:01:27;;;;;;;29.45;5.63;;;12.80;99.90;;;;;;5034605;28;20455;-79
2023/01/05 12:04:11;;;;;;;31.95;4.70;;;12.80;99.90;;;;;;5033634;28;20057;-77
2023/01/05 12:07:04;;;;;;;25.63;5.50;;;12.80;99.90;;;;;;5033839;28;20033;-79
2023/01/05 12:09:58;;;;;;;28.20;4.55;;;13.00;99.90;;;;;;5034100;28;20033;-79
2023/01/05 12:12:32;;;;;;;31.50;5.93;;;13.00;99.90;;;;;;5035357;28;20061;-78
2023/01/05 12:15:07;;;;;;;33.28;5.53;;;13.00;99.90;;;;;;5034241;28;20038;-79
2023/01/05 12:17:50;;;;;;;30.25;4.88;;;13.00;99.90;;;;;;5033754;28;20044;-79
2023/01/05 12:20:43;;;;;;;27.33;5.40;;;13.10;99.90;;;;;;5033533;28;20067;-79
2023/01/05 12:23:20;;;;;;;27.65;4.55;;;13.50;99.90;;;;;;5032986;28;20022;-82
2023/01/05 12:26:00;;;;;;;26.33;5.10;;;14.10;99.90;;;;;;5033163;28;20594;-82
2023/01/05 12:28:46;;;;;;;21.75;4.82;;;14.70;99.90;;;;;;5041678;28;20373;-80
2023/01/05 12:31:24;;;;;;;22.90;5.32;;;15.30;99.90;;;;;;5047961;28;20013;-81
2023/01/05 12:34:26;;;;;;;24.95;4.85;;;15.90;97.50;;;;;;5047043;28;20048;-78
2023/01/05 12:37:19;;;;;;;21.98;4.68;;;16.40;95.30;;;;;;5047781;28;20124;-87
2023/01/05 12:39:57;;;;;;;25.05;4.35;;;16.40;92.50;;;;;;5025388;28;20025;-87
2023/01/05 12:42:26;;;;;;;22.55;4.63;;;16.40;91.60;;;;;;5047632;28;20017;-87
2023/01/05 12:45:10;;;;;;;20.13;5.13;;;16.40;91.10;;;;;;5034938;28;20026;-87
2023/01/05 12:47:39;;;;;;;25.27;5.15;;;16.60;90.50;;;;;;5049237;28;20025;-85
2023/01/05 12:50:29;;;;;;;20.23;4.75;;;16.90;89.00;;;;;;5044564;28;20033;-85
2023/01/05 12:53:18;;;;;;;26.17;6.53;;;17.20;87.70;;;;;;5031551;28;20025;-85
2023/01/05 12:55:53;;;;;;;22.10;3.95;;;17.20;86.10;;;;;;5016380;28;20100;-84
2023/01/05 12:58:31;;;;;;;24.52;5.00;;;17.10;85.70;;;;;;5013545;28;20385;-85
2023/01/05 13:00:59;;;;;;;24.73;4.95;;;16.80;83.70;;;;;;5017147;28;20014;-86
2023/01/05 13:03:44;;;;;;;20.02;4.75;;;16.40;83.30;;;;;;5032684;28;20013;-85
2023/01/05 13:06:20;;;;;;;21.95;4.90;;;16.00;83.30;;;;;;5036471;28;20025;-85
2023/01/05 13:08:57;;;;;;;21.52;3.92;;;15.60;83.30;;;;;;5032427;28;20032;-85
2023/01/05 13:11:44;;;;;;;21.75;4.35;;;15.10;84.10;;;;;;5033126;28;20116;-85
2023/01/05 13:14:23;;;;;;;29.23;4.80;;;14.80;85.30;;;;;;5033483;28;20407;-85
2023/01/05 13:16:59;;;;;;;30.60;5.40;;;14.70;86.70;;;;;;5032618;28;20014;-86
2023/01/05 13:19:37;;;;;;;21.67;3.90;;;14.80;88.00;;;;;;5033599;28;20052;-79
2023/01/05 13:22:09;;;;;;;24.83;4.50;;;14.90;88.40;;;;;;5032652;28;20109;-78
2023/01/05 13:24:44;;;;;;;35.13;5.93;;;15.00;88.70;;;;;;5032771;28;20447;-78
2023/01/05 13:27:12;;;;;;;28.10;4.93;;;15.00;88.70;;;;;;5032722;28;20026;-78
2023/01/05 13:29:42;;;;;;;23.67;4.30;;;15.00;89.60;;;;;;5031955;28;20025;-77
2023/01/05 13:32:49;;;;;;;23.73;4.40;;;15.20;89.30;;;;;;5032827;28;20116;-78